Time;durP1;ratioP1;P1;durP2;ratioP2;P2;SDS_P1;SDS_P2;PMS_P1;PMS_P2;Temp;Humidity;BMP_temperature;BMP_pressure;BME280_temperature;BME280_humidity;BME280_pressure;Samples;Min_cycle;Max_cycle;Signal;HPM_P1;HPM_P2
2022/12/27 00:01:53;;;;;;;;;;;;;;;16.55;49.52;98426.66;4424599;32;19946;-80
2022/12/27 00:04:20;;;;;;;;;;;;;;;16.74;49.70;98422.03;4424884;32;19955;-80
2022/12/27 00:06:47;;;;;;;;;;;;;;;16.95;48.93;98410.28;4411889;32;19995;-80
2022/12/27 00:09:13;;;;;;;;;;;;;;;16.74;49.37;98407.25;4424659;32;19973;-80
2022/12/27 00:12:02;;;;;;;;;;;;;;;17.15;48.14;98403.81;4424663;32;19946;-80
2022/12/27 00:14:30;;;;;;;;;;;;;;;16.99;48.18;98401.31;4424132;32;20000;-80
2022/12/27 00:16:57;;;;;;;;;;;;;;;17.52;46.79;98404.88;4424139;32;19964;-80
2022/12/27 00:19:23;;;;;;;;;;;;;;;17.57;46.59;98415.84;4424753;32;19969;-80
2022/12/27 00:21:50;;;;;;;;;;;;;;;16.85;48.28;98414.38;4411833;32;19946;-80
2022/12/27 00:24:17;;;;;;;;;;;;;;;16.41;50.13;98419.69;4424407;32;19960;-80
2022/12/27 00:26:43;;;;;;;;;;;;;;;16.29;50.43;98421.28;4424639;32;19988;-80
2022/12/27 00:29:10;;;;;;;;;;;;;;;16.11;51.50;98420.59;4424234;32;19946;-80
2022/12/27 00:31:50;;;;;;;;;;;;;;;16.08;51.60;98426.00;4424335;32;19941;-80
2022/12/27 00:34:17;;;;;;;;;;;;;;;16.22;51.73;98429.53;4424238;32;19981;-80
2022/12/27 00:36:43;;;;;;;;;;;;;;;15.90;52.96;98419.25;4423806;32;19973;-80
2022/12/27 00:39:10;;;;;;;;;;;;;;;16.10;52.34;98416.31;4424052;32;19950;-80
2022/12/27 00:41:49;;;;;;;;;;;;;;;15.33;54.85;98413.84;4423853;32;19950;-80
2022/12/27 00:44:16;;;;;;;;;;;;;;;15.76;53.81;98420.06;4423190;32;19946;-80
2022/12/27 00:46:43;;;;;;;;;;;;;;;15.36;55.30;98411.06;4423838;32;19950;-80
2022/12/27 00:49:10;;;;;;;;;;;;;;;14.56;58.22;98406.78;4423458;32;19989;-80
2022/12/27 00:51:48;;;;;;;;;;;;;;;15.14;56.53;98400.19;4423687;32;19941;-80
2022/12/27 00:54:14;;;;;;;;;;;;;;;14.71;57.98;98407.72;4423804;32;19949;-79
2022/12/27 00:56:41;;;;;;;;;;;;;;;14.28;60.02;98422.94;4423638;32;19992;-80
2022/12/27 00:59:09;;;;;;;;;;;;;;;13.56;63.24;98430.91;4410487;32;19986;-79
2022/12/27 01:01:36;;;;;;;;;;;;;;;13.09;65.46;98433.13;4410584;32;20048;-79
2022/12/27 01:04:03;;;;;;;;;;;;;;;12.89;66.86;98439.25;4423518;32;19950;-79
2022/12/27 01:06:31;;;;;;;;;;;;;;;12.75;68.30;98451.03;4422609;32;19954;-80
2022/12/27 01:08:58;;;;;;;;;;;;;;;13.08;67.21;98460.81;4409887;32;19957;-80
2022/12/27 01:11:27;;;;;;;;;;;;;;;13.56;65.25;98460.25;4422733;32;19984;-79
2022/12/27 01:13:57;;;;;;;;;;;;;;;13.22;66.54;98468.78;4422439;32;19954;-80
2022/12/27 01:16:24;;;;;;;;;;;;;;;13.68;65.02;98471.78;4421503;32;20008;-80
2022/12/27 01:18:51;;;;;;;;;;;;;;;13.43;65.87;98482.50;4421656;32;19960;-80
2022/12/27 01:21:20;;;;;;;;;;;;;;;13.28;66.74;98483.19;4421356;32;19958;-80
2022/12/27 01:23:47;;;;;;;;;;;;;;;13.01;67.91;98506.00;4421104;32;20008;-80
2022/12/27 01:26:18;;;;;;;;;;;;;;;13.08;68.39;98509.16;4422466;32;19977;-79
2022/12/27 01:28:45;;;;;;;;;;;;;;;13.04;68.40;98509.28;4423911;32;20734;-79
2022/12/27 01:31:18;;;;;;;;;;;;;;;13.03;68.99;98522.31;4410175;32;20712;-80
2022/12/27 01:33:45;;;;;;;;;;;;;;;13.54;66.74;98513.09;4423474;32;19946;-80
2022/12/27 01:36:16;;;;;;;;;;;;;;;13.97;64.76;98522.25;4423884;32;19950;-80
2022/12/27 01:38:43;;;;;;;;;;;;;;;13.71;66.40;98509.69;4423290;32;19945;-80
2022/12/27 01:44:22;;;;;;;;;;;;;;;13.88;65.50;98514.91;4413226;32;19972;-80
2022/12/27 01:46:48;;;;;;;;;;;;;;;14.02;65.08;98506.44;4422845;32;20024;-80
2022/12/27 01:49:15;;;;;;;;;;;;;;;14.07;64.68;98501.88;4409186;32;19985;-80
2022/12/27 01:51:51;;;;;;;;;;;;;;;14.42;63.40;98500.94;4422743;32;19946;-80
2022/12/27 01:54:18;;;;;;;;;;;;;;;14.88;61.23;98502.91;4422480;32;20559;-80
2022/12/27 01:56:44;;;;;;;;;;;;;;;14.89;61.14;98494.25;4423687;32;19954;-80
2022/12/27 01:59:11;;;;;;;;;;;;;;;15.18;60.17;98498.69;4423382;32;19945;-80
2022/12/27 02:01:44;;;;;;;;;;;;;;;15.30;59.11;98497.19;4422348;32;19965;-80
2022/12/27 02:04:11;;;;;;;;;;;;;;;15.94;56.72;98501.41;4408721;32;19981;-80
2022/12/27 02:06:38;;;;;;;;;;;;;;;15.71;57.41;98507.09;4422148;32;19969;-80
2022/12/27 02:09:08;;;;;;;;;;;;;;;15.91;56.80;98502.44;4423002;32;19955;-80
2022/12/27 02:11:50;;;;;;;;;;;;;;;15.48;57.76;98500.53;4411080;32;20039;-80
2022/12/27 02:14:18;;;;;;;;;;;;;;;15.88;56.94;98494.81;4424724;32;19985;-80
2022/12/27 02:16:52;;;;;;;;;;;;;;;15.93;56.88;98491.94;4410291;32;20592;-80
2022/12/27 02:19:25;;;;;;;;;;;;;;;16.17;56.11;98485.31;4407843;32;19975;-80
2022/12/27 02:22:06;;;;;;;;;;;;;;;16.60;54.34;98480.19;4421602;32;19946;-80
2022/12/27 02:24:59;;;;;;;;;;;;;;;16.23;55.61;98481.50;4408678;32;19965;-80
2022/12/27 02:27:35;;;;;;;;;;;;;;;16.53;55.06;98486.69;4418006;32;19985;-80
2022/12/27 02:30:14;;;;;;;;;;;;;;;15.35;58.71;98469.19;4419409;32;19964;-80
2022/12/27 02:32:40;;;;;;;;;;;;;;;15.16;59.30;98466.75;4418575;32;19988;-80
2022/12/27 02:35:08;;;;;;;;;;;;;;;15.00;60.41;98474.56;4418314;32;19945;-80
2022/12/27 02:37:37;;;;;;;;;;;;;;;14.45;62.10;98469.66;4405037;32;20261;-80
2022/12/27 02:54:06;;;;;;;;;;;;;;;15.41;57.91;98474.03;4399155;32;231531;-80
2022/12/27 03:03:19;;;;;;;;;;;;;;;15.21;58.63;98484.72;4407571;32;20003;-80
2022/12/27 03:08:50;;;;;;;;;;;;;;;14.86;59.43;98489.19;4417615;32;19973;-80
2022/12/27 03:17:04;;;;;;;;;;;;;;;14.16;61.72;98502.25;4390686;32;19949;-80
2022/12/27 03:33:11;;;;;;;;;;;;;;;13.82;62.40;98515.19;4405029;32;19965;-80
2022/12/27 03:33:22;;;;;;;;;;;;;;;12.77;66.44;98513.13;4403800;32;20060;-80
2022/12/27 03:39:02;;;;;;;;;;;;;;;13.19;65.68;98512.16;4378298;32;19951;-80
2022/12/27 03:44:24;;;;;;;;;;;;;;;12.92;66.59;98517.63;4399941;32;19961;-80
2022/12/27 03:46:58;;;;;;;;;;;;;;;13.19;66.30;98510.41;4389355;32;20655;-80
2022/12/27 03:49:31;;;;;;;;;;;;;;;13.53;64.49;98512.25;4389323;32;19950;-80
2022/12/27 03:52:04;;;;;;;;;;;;;;;12.94;67.26;98513.22;4402186;32;19974;-80
2022/12/27 03:54:32;;;;;;;;;;;;;;;12.98;66.36;98516.53;4403006;32;19982;-80
2022/12/27 03:57:04;;;;;;;;;;;;;;;12.77;67.70;98515.72;4389159;32;19985;-80
2022/12/27 03:59:31;;;;;;;;;;;;;;;12.29;69.57;98513.50;4388383;32;19970;-80
2022/12/27 04:01:57;;;;;;;;;;;;;;;12.93;67.37;98516.72;4388045;32;19947;-80
2022/12/27 04:04:24;;;;;;;;;;;;;;;13.30;65.42;98508.16;4401537;32;19977;-80
2022/12/27 04:06:51;;;;;;;;;;;;;;;13.38;65.15;98525.91;4401615;32;19989;-80
2022/12/27 04:36:54;;;;;;;;;;;;;;;13.17;64.26;98560.56;4400887;32;19977;-80
2022/12/27 04:39:21;;;;;;;;;;;;;;;12.77;66.18;98567.50;4400292;32;19977;-80
2022/12/27 04:55:53;;;;;;;;;;;;;;;12.65;66.55;98592.19;4403138;32;19969;-79
2022/12/27 04:58:19;;;;;;;;;;;;;;;12.74;65.45;98584.00;4414893;32;19992;-80
2022/12/27 05:03:39;;;;;;;;;;;;;;;12.18;68.69;98585.53;4405912;32;20285;-80
2022/12/27 05:06:06;;;;;;;;;;;;;;;12.67;66.22;98587.78;4402525;32;20350;-80
2022/12/27 05:14:09;;;;;;;;;;;;;;;13.80;60.53;98605.19;4416273;32;19953;-80
2022/12/27 05:16:40;;;;;;;;;;;;;;;12.27;65.46;98608.44;4414841;32;19961;-80
2022/12/27 05:19:07;;;;;;;;;;;;;;;12.92;62.04;98620.38;4414969;32;20354;-80
2022/12/27 05:21:38;;;;;;;;;;;;;;;12.17;64.43;98618.31;4415000;32;19977;-80
2022/12/27 05:26:50;;;;;;;;;;;;;;;13.47;58.45;98634.38;4415153;32;19977;-80
2022/12/27 05:29:17;;;;;;;;;;;;;;;11.92;64.48;98639.16;4401598;32;19977;-80
2022/12/27 05:31:43;;;;;;;;;;;;;;;13.57;57.43;98643.41;4414363;32;19950;-80
2022/12/27 05:34:10;;;;;;;;;;;;;;;13.24;57.71;98644.91;4415055;32;19974;-80
2022/12/27 05:36:37;;;;;;;;;;;;;;;14.19;53.58;98638.81;4414871;32;19976;-80
2022/12/27 05:39:03;;;;;;;;;;;;;;;14.01;54.50;98648.28;4414561;32;19973;-80
2022/12/27 05:41:30;;;;;;;;;;;;;;;13.39;56.75;98652.00;4414351;32;19981;-80
2022/12/27 05:43:57;;;;;;;;;;;;;;;12.72;58.86;98652.31;4400393;32;19973;-80
2022/12/27 05:46:32;;;;;;;;;;;;;;;13.74;56.32;98662.56;4401801;32;19984;-80
2022/12/27 05:48:58;;;;;;;;;;;;;;;13.88;55.57;98668.78;4414905;32;19993;-80
2022/12/27 05:51:26;;;;;;;;;;;;;;;13.15;58.55;98673.78;4415641;32;19992;-80
2022/12/27 05:53:53;;;;;;;;;;;;;;;13.28;58.38;98669.78;4416469;32;19961;-80
2022/12/27 05:56:20;;;;;;;;;;;;;;;12.36;63.96;98665.84;4417680;32;19984;-80
2022/12/27 05:58:47;;;;;;;;;;;;;;;11.94;66.14;98676.13;4418158;32;19977;-79
2022/12/27 06:01:21;;;;;;;;;;;;;;;11.38;67.79;98673.00;4417013;32;19978;-79
2022/12/27 06:03:48;;;;;;;;;;;;;;;11.52;66.65;98671.62;4416766;32;19992;-79
2022/12/27 06:06:15;;;;;;;;;;;;;;;11.64;66.01;98679.84;4417457;32;19996;-79
2022/12/27 06:08:41;;;;;;;;;;;;;;;11.68;65.10;98689.16;4417144;32;19949;-80
2022/12/27 06:11:10;;;;;;;;;;;;;;;12.35;61.80;98695.22;4417322;32;19981;-80
2022/12/27 06:13:37;;;;;;;;;;;;;;;12.00;61.88;98688.81;4415864;32;19969;-79
2022/12/27 06:16:05;;;;;;;;;;;;;;;12.08;60.78;98698.88;4417108;32;19956;-80
2022/12/27 06:18:32;;;;;;;;;;;;;;;12.37;59.91;98702.91;4417047;32;19978;-80
2022/12/27 06:21:01;;;;;;;;;;;;;;;12.70;58.62;98691.22;4416400;32;20635;-80
2022/12/27 06:23:28;;;;;;;;;;;;;;;12.76;57.88;98708.25;4416054;32;20708;-80
2022/12/27 06:25:54;;;;;;;;;;;;;;;12.56;58.70;98706.47;4416517;32;19957;-80
2022/12/27 06:28:21;;;;;;;;;;;;;;;12.64;58.62;98712.16;4416172;32;19977;-80
2022/12/27 06:30:49;;;;;;;;;;;;;;;12.67;58.15;98719.81;4415596;32;20104;-80
2022/12/27 06:33:16;;;;;;;;;;;;;;;13.27;55.83;98728.53;4416426;32;19950;-80
2022/12/27 06:35:42;;;;;;;;;;;;;;;12.68;57.61;98729.28;4416087;32;20019;-80
2022/12/27 06:38:09;;;;;;;;;;;;;;;12.10;59.24;98730.69;4417026;32;19946;-80
2022/12/27 06:40:36;;;;;;;;;;;;;;;12.60;57.93;98736.50;4417147;32;19946;-80
2022/12/27 06:43:02;;;;;;;;;;;;;;;12.09;59.24;98747.12;4416316;32;19946;-80
2022/12/27 06:45:29;;;;;;;;;;;;;;;11.99;60.44;98758.69;4416334;32;19953;-80
2022/12/27 06:47:56;;;;;;;;;;;;;;;12.16;59.33;98761.50;4417900;32;19950;-80
2022/12/27 06:50:23;;;;;;;;;;;;;;;12.16;59.36;98764.09;4416658;32;19950;-80
2022/12/27 06:52:49;;;;;;;;;;;;;;;11.55;60.12;98748.19;4417495;32;20028;-80
2022/12/27 06:55:16;;;;;;;;;;;;;;;11.74;60.07;98753.56;4416388;32;19970;-79
2022/12/27 06:57:43;;;;;;;;;;;;;;;11.82;59.38;98764.50;4417479;32;19945;-80
2022/12/27 07:00:12;;;;;;;;;;;;;;;11.10;61.86;98773.87;4417274;32;19960;-80
2022/12/27 07:02:38;;;;;;;;;;;;;;;11.54;59.75;98773.19;4418843;32;19960;-80
2022/12/27 07:05:06;;;;;;;;;;;;;;;11.26;60.42;98773.31;4407397;32;20037;-80
2022/12/27 07:07:32;;;;;;;;;;;;;;;11.47;59.41;98783.81;4420028;32;19950;-80
2022/12/27 07:09:59;;;;;;;;;;;;;;;11.69;58.65;98779.56;4420531;32;19954;-79
2022/12/27 07:12:26;;;;;;;;;;;;;;;11.83;58.29;98789.47;4422095;32;19992;-80
2022/12/27 07:15:00;;;;;;;;;;;;;;;11.85;57.48;98778.16;4423178;32;19945;-80
2022/12/27 07:17:26;;;;;;;;;;;;;;;11.14;58.70;98786.63;4422614;32;19950;-80
2022/12/27 07:19:55;;;;;;;;;;;;;;;11.85;55.44;98795.41;4424385;32;20000;-79
2022/12/27 07:22:22;;;;;;;;;;;;;;;12.09;56.25;98796.25;4424980;32;19996;-79
2022/12/27 07:24:48;;;;;;;;;;;;;;;12.14;54.14;98787.44;4424052;32;20586;-79
2022/12/27 07:27:15;;;;;;;;;;;;;;;11.78;55.01;98792.16;4425058;32;19953;-79
2022/12/27 07:30:13;;;;;;;;;;;;;;;12.19;53.49;98807.13;4425247;32;19946;-80
2022/12/27 07:32:39;;;;;;;;;;;;;;;12.18;51.97;98815.78;4425145;32;19964;-79
2022/12/27 07:35:06;;;;;;;;;;;;;;;12.28;50.89;98820.56;4425064;32;19945;-79
2022/12/27 07:37:33;;;;;;;;;;;;;;;12.42;49.97;98818.28;4424810;32;19945;-79
2022/12/27 07:40:07;;;;;;;;;;;;;;;12.42;50.31;98823.47;4425062;32;19949;-80
2022/12/27 07:42:34;;;;;;;;;;;;;;;12.66;49.75;98813.09;4425193;32;19946;-79
2022/12/27 07:45:00;;;;;;;;;;;;;;;11.96;50.95;98826.91;4424457;32;19997;-80
2022/12/27 07:47:27;;;;;;;;;;;;;;;12.00;52.06;98823.31;4424631;32;19946;-79
2022/12/27 07:49:54;;;;;;;;;;;;;;;11.93;52.76;98814.09;4424706;32;19977;-80
2022/12/27 07:52:20;;;;;;;;;;;;;;;12.14;52.84;98835.75;4424653;32;19961;-79
2022/12/27 07:54:47;;;;;;;;;;;;;;;11.90;53.55;98827.13;4424907;32;19988;-79
2022/12/27 07:57:14;;;;;;;;;;;;;;;12.07;52.74;98832.53;4424830;32;19946;-80
2022/12/27 07:59:59;;;;;;;;;;;;;;;11.99;53.83;98828.53;4424733;32;19962;-79
2022/12/27 08:02:25;;;;;;;;;;;;;;;11.67;54.72;98832.22;4424714;32;19987;-79
2022/12/27 08:04:52;;;;;;;;;;;;;;;12.03;54.10;98843.06;4424647;32;19942;-80
2022/12/27 08:07:19;;;;;;;;;;;;;;;11.79;55.17;98853.34;4424160;32;19969;-80
2022/12/27 08:09:51;;;;;;;;;;;;;;;12.18;54.20;98852.84;4424726;32;19954;-80
2022/12/27 08:12:17;;;;;;;;;;;;;;;11.63;55.66;98854.75;4424500;32;19950;-79
2022/12/27 08:14:44;;;;;;;;;;;;;;;12.01;55.21;98870.69;4424784;32;19960;-79
2022/12/27 08:17:14;;;;;;;;;;;;;;;11.27;56.09;98869.72;4424605;32;19965;-79
2022/12/27 08:19:40;;;;;;;;;;;;;;;11.85;55.42;98866.06;4411480;32;19961;-79
2022/12/27 08:22:08;;;;;;;;;;;;;;;10.76;54.75;98874.81;4424458;32;19950;-79
2022/12/27 08:24:35;;;;;;;;;;;;;;;10.71;54.31;98882.69;4424379;32;19946;-79
2022/12/27 08:27:02;;;;;;;;;;;;;;;10.48;52.10;98887.66;4424079;32;19945;-79
2022/12/27 08:29:47;;;;;;;;;;;;;;;10.61;50.76;98881.25;4424224;32;19950;-79
2022/12/27 08:32:14;;;;;;;;;;;;;;;10.14;47.94;98868.81;4423776;32;19942;-80
2022/12/27 08:34:41;;;;;;;;;;;;;;;10.24;46.77;98866.84;4423930;32;19970;-79
2022/12/27 08:37:08;;;;;;;;;;;;;;;10.17;46.41;98873.03;4423032;32;19945;-79
2022/12/27 08:43:03;;;;;;;;;;;;;;;10.99;42.20;98859.44;4424511;32;19979;-79
2022/12/27 08:45:30;;;;;;;;;;;;;;;10.63;41.05;98867.44;4411484;32;19954;-79
2022/12/27 08:48:00;;;;;;;;;;;;;;;11.11;39.98;98878.88;4424258;32;19979;-79
2022/12/27 08:53:39;;;;;;;;;;;;;;;11.57;38.11;98876.47;4424457;32;20001;-79
2022/12/27 08:56:05;;;;;;;;;;;;;;;12.12;37.45;98882.38;4424144;32;19961;-79
2022/12/27 08:58:32;;;;;;;;;;;;;;;11.58;37.79;98875.56;4424457;32;19999;-79
2022/12/27 09:01:05;;;;;;;;;;;;;;;11.65;39.18;98891.72;4424402;32;19992;-79
2022/12/27 09:03:32;;;;;;;;;;;;;;;11.48;40.16;98894.03;4411083;32;19970;-80
2022/12/27 09:06:06;;;;;;;;;;;;;;;11.78;40.63;98912.84;4424217;32;19979;-79
2022/12/27 09:08:33;;;;;;;;;;;;;;;11.66;40.65;98913.25;4424061;32;19954;-79
2022/12/27 09:14:22;;;;;;;;;;;;;;;11.63;41.55;98947.81;4424321;32;19983;-80
2022/12/27 09:16:48;;;;;;;;;;;;;;;11.80;40.19;98937.81;4423884;32;19945;-79
2022/12/27 09:19:15;;;;;;;;;;;;;;;11.43;39.54;98939.84;4423961;32;19950;-79
2022/12/27 09:21:56;;;;;;;;;;;;;;;11.50;38.85;98955.13;4423984;32;19961;-80
2022/12/27 09:24:23;;;;;;;;;;;;;;;10.88;38.00;98954.47;4424054;32;19950;-79
2022/12/27 09:26:49;;;;;;;;;;;;;;;11.68;38.32;98973.50;4423941;32;19946;-80
2022/12/27 09:29:16;;;;;;;;;;;;;;;10.96;38.36;98965.41;4423690;32;19964;-80
2022/12/27 09:31:58;;;;;;;;;;;;;;;10.93;37.26;98958.59;4423719;32;19957;-80
2022/12/27 09:34:25;;;;;;;;;;;;;;;11.15;37.58;98965.69;4423843;32;19965;-79
2022/12/27 09:36:51;;;;;;;;;;;;;;;11.13;36.37;98962.31;4423681;32;19954;-79
2022/12/27 09:39:18;;;;;;;;;;;;;;;11.13;37.83;98957.16;4423802;32;19958;-79
2022/12/27 09:45:13;;;;;;;;;;;;;;;10.99;36.27;98962.75;4423265;32;19965;-79
2022/12/27 09:47:46;;;;;;;;;;;;;;;11.16;36.79;98968.22;4411777;32;19950;-79
2022/12/27 09:50:36;;;;;;;;;;;;;;;11.52;36.73;98955.91;4425896;32;19992;-79
2022/12/27 09:53:35;;;;;;;;;;;;;;;11.57;35.66;98955.75;4426001;32;19958;-79
2022/12/27 09:56:02;;;;;;;;;;;;;;;12.40;35.80;98967.59;4392729;32;19950;-79
2022/12/27 09:58:37;;;;;;;;;;;;;;;11.73;35.49;98946.63;4427125;26;19953;-79
2022/12/27 10:01:25;;;;;;;;;;;;;;;11.71;33.85;98958.75;4413006;32;19969;-79
2022/12/27 10:03:52;;;;;;;;;;;;;;;12.15;33.62;98964.19;4425794;32;19984;-79
2022/12/27 10:06:19;;;;;;;;;;;;;;;11.39;34.15;98954.63;4425408;32;19958;-79
2022/12/27 10:09:05;;;;;;;;;;;;;;;10.81;35.74;98960.69;4425740;32;19974;-79
2022/12/27 10:11:55;;;;;;;;;;;;;;;10.83;35.19;98946.84;4425252;32;21469;-79
2022/12/27 10:14:26;;;;;;;;;;;;;;;10.46;36.48;98972.03;4448731;27;19999;-79
2022/12/27 10:16:59;;;;;;;;;;;;;;;11.12;35.98;98974.38;4399076;32;19985;-79
2022/12/27 10:22:14;;;;;;;;;;;;;;;10.45;37.59;98966.03;4395127;32;19966;-79
2022/12/27 10:24:51;;;;;;;;;;;;;;;10.64;37.34;98982.69;4395092;32;19992;-78
2022/12/27 10:27:26;;;;;;;;;;;;;;;10.74;37.22;98947.13;4395098;32;19946;-78
2022/12/27 10:30:29;;;;;;;;;;;;;;;10.90;36.86;98975.91;4394520;32;19950;-78
2022/12/27 10:32:55;;;;;;;;;;;;;;;10.44;37.16;98966.91;4394764;32;20001;-78
2022/12/27 10:35:23;;;;;;;;;;;;;;;11.06;35.95;98976.28;4394981;32;19958;-78
2022/12/27 10:37:52;;;;;;;;;;;;;;;11.36;35.87;98966.78;4394828;32;19961;-78
2022/12/27 10:40:48;;;;;;;;;;;;;;;11.69;36.30;98980.34;4394779;32;19946;-78
2022/12/27 10:43:18;;;;;;;;;;;;;;;11.08;35.72;98959.88;4395172;32;19990;-79
2022/12/27 10:45:45;;;;;;;;;;;;;;;10.64;36.95;98943.97;4394346;32;20005;-79
2022/12/27 10:48:13;;;;;;;;;;;;;;;11.09;36.54;98937.50;4394520;32;19950;-79
2022/12/27 10:50:59;;;;;;;;;;;;;;;10.29;37.98;98932.03;4394751;32;19950;-79
2022/12/27 10:53:27;;;;;;;;;;;;;;;10.22;36.98;98937.44;4394671;32;19954;-79
2022/12/27 10:56:04;;;;;;;;;;;;;;;10.95;35.97;98958.53;4394192;32;19988;-80
2022/12/27 10:58:36;;;;;;;;;;;;;;;11.10;36.22;98959.84;4381814;32;20000;-79
2022/12/27 11:01:03;;;;;;;;;;;;;;;11.01;35.74;98951.47;4394330;32;19993;-79
2022/12/27 11:03:31;;;;;;;;;;;;;;;10.99;36.06;98935.19;4394211;32;20563;-79
2022/12/27 11:06:02;;;;;;;;;;;;;;;10.09;36.58;98909.34;4393418;32;19961;-79
2022/12/27 11:08:29;;;;;;;;;;;;;;;10.78;35.89;98933.25;4393974;32;19955;-79
2022/12/27 11:11:14;;;;;;;;;;;;;;;10.37;35.39;98926.69;4393449;32;19961;-80
2022/12/27 11:13:41;;;;;;;;;;;;;;;10.06;35.16;98932.63;4390034;32;19959;-79
2022/12/27 11:16:21;;;;;;;;;;;;;;;10.00;36.56;98952.59;4392815;32;19997;-79
2022/12/27 11:18:48;;;;;;;;;;;;;;;10.38;36.65;98954.16;4394355;32;19970;-80
2022/12/27 11:21:21;;;;;;;;;;;;;;;10.71;35.33;98957.53;4394681;32;19968;-79
2022/12/27 11:24:02;;;;;;;;;;;;;;;10.79;35.10;98959.91;4394377;32;19950;-79
2022/12/27 11:26:33;;;;;;;;;;;;;;;11.68;35.06;98958.84;4394491;32;20003;-79
2022/12/27 11:29:00;;;;;;;;;;;;;;;10.70;34.59;98901.63;4392011;32;20646;-79
2022/12/27 11:31:30;;;;;;;;;;;;;;;9.98;36.65;98936.28;4390529;32;19942;-80
2022/12/27 11:33:58;;;;;;;;;;;;;;;9.79;37.34;98935.94;4387434;32;19970;-80
2022/12/27 11:36:37;;;;;;;;;;;;;;;9.90;37.85;98935.66;4387827;32;19970;-80
2022/12/27 11:39:04;;;;;;;;;;;;;;;9.87;37.48;98928.84;4388052;32;19975;-80
2022/12/27 11:41:49;;;;;;;;;;;;;;;10.00;37.13;98937.97;4387336;32;19981;-80
2022/12/27 11:44:21;;;;;;;;;;;;;;;9.98;38.27;98960.34;4391802;32;19993;-79
2022/12/27 11:46:51;;;;;;;;;;;;;;;10.64;37.27;98958.63;4393913;32;19959;-79
2022/12/27 11:49:31;;;;;;;;;;;;;;;10.89;35.98;98956.16;4394313;32;19947;-79
2022/12/27 11:52:06;;;;;;;;;;;;;;;11.84;34.74;98962.66;4394230;32;19961;-80
2022/12/27 11:54:33;;;;;;;;;;;;;;;11.64;34.08;98974.50;4389864;32;19954;-80
2022/12/27 11:57:19;;;;;;;;;;;;;;;11.47;34.20;98973.28;4387522;32;19946;-80
2022/12/27 11:59:48;;;;;;;;;;;;;;;10.95;34.96;98976.62;4387020;32;19986;-80
2022/12/27 12:02:21;;;;;;;;;;;;;;;10.17;34.90;98971.03;4385151;32;20258;-80
2022/12/27 12:05:21;;;;;;;;;;;;;;;9.67;37.53;98968.00;4389387;32;19955;-80
2022/12/27 12:07:50;;;;;;;;;;;;;;;10.71;37.83;98963.53;4365726;32;19958;-80
2022/12/27 12:10:23;;;;;;;;;;;;;;;10.75;39.39;98969.47;4390691;32;19988;-80
2022/12/27 12:13:09;;;;;;;;;;;;;;;11.85;36.88;98972.09;4391426;32;19950;-80
2022/12/27 12:15:44;;;;;;;;;;;;;;;11.25;37.39;98978.28;4392293;32;20001;-80
2022/12/27 12:18:29;;;;;;;;;;;;;;;12.72;35.83;98979.41;4392541;32;19973;-80
2022/12/27 12:21:02;;;;;;;;;;;;;;;12.19;35.60;98977.88;4392313;32;19978;-80
2022/12/27 12:23:37;;;;;;;;;;;;;;;12.30;35.04;98999.03;4392694;32;19961;-80
2022/12/27 12:26:12;;;;;;;;;;;;;;;12.35;34.69;98987.66;4392853;32;19969;-80
2022/12/27 12:28:38;;;;;;;;;;;;;;;12.51;35.33;98992.28;4392754;32;19970;-80
2022/12/27 12:31:27;;;;;;;;;;;;;;;12.61;35.05;99002.25;4389727;32;19962;-80
2022/12/27 12:34:13;;;;;;;;;;;;;;;12.30;34.79;98988.69;4390455;32;19982;-80
2022/12/27 12:36:43;;;;;;;;;;;;;;;11.68;36.51;98996.75;4392410;32;19954;-80
2022/12/27 12:39:17;;;;;;;;;;;;;;;11.49;36.99;98992.19;4391128;32;20004;-80
2022/12/27 12:42:08;;;;;;;;;;;;;;;11.55;37.06;98991.16;4390609;32;19992;-80
2022/12/27 12:44:59;;;;;;;;;;;;;;;10.92;36.52;98956.91;4391212;32;19950;-80
2022/12/27 12:47:43;;;;;;;;;;;;;;;10.46;37.89;98952.22;4390605;32;19959;-80
2022/12/27 12:50:21;;;;;;;;;;;;;;;10.22;39.57;98968.38;4389193;32;19969;-80
2022/12/27 12:53:00;;;;;;;;;;;;;;;9.90;39.99;98958.88;4390059;32;19946;-80
2022/12/27 12:55:49;;;;;;;;;;;;;;;10.03;40.97;98981.72;4389712;32;19961;-80
2022/12/27 12:58:25;;;;;;;;;;;;;;;9.95;41.11;98975.06;4390410;32;19986;-80
2022/12/27 13:00:59;;;;;;;;;;;;;;;8.89;42.42;98962.06;4383074;32;20322;-80
2022/12/27 13:03:45;;;;;;;;;;;;;;;8.72;43.14;98974.47;4379394;32;20000;-81
2022/12/27 13:06:27;;;;;;;;;;;;;;;9.15;42.56;98986.41;4386251;32;19966;-80
2022/12/27 13:09:02;;;;;;;;;;;;;;;8.64;42.54;98979.75;4383041;32;19982;-80
2022/12/27 13:17:11;;;;;;;;;;;;;;;8.92;43.00;98967.13;4546817;27;20160;-80
2022/12/27 13:22:39;;;;;;;;;;;;;;;8.58;45.01;98981.59;4646890;27;19962;-79
2022/12/27 13:25:14;;;;;;;;;;;;;;;8.69;43.45;98977.06;5018883;26;20009;31
2022/12/27 13:28:00;;;;;;;;;;;;;;;8.60;43.61;98987.53;4541934;27;19968;-79
2022/12/27 13:30:36;;;;;;;;;;;;;;;9.14;43.61;98987.28;4575108;27;19966;-79
2022/12/27 13:33:03;;;;;;;;;;;;;;;8.54;42.91;98972.25;4397601;32;19958;-80
2022/12/27 13:35:34;;;;;;;;;;;;;;;8.84;42.85;98986.22;4407922;32;19998;-79
2022/12/27 13:38:05;;;;;;;;;;;;;;;9.09;43.20;98997.69;4394904;32;19951;-80
2022/12/27 13:40:41;;;;;;;;;;;;;;;8.79;43.17;99011.19;4382498;32;20001;-79
2022/12/27 13:43:25;;;;;;;;;;;;;;;8.75;42.34;98997.53;4395255;32;19967;-79
2022/12/27 13:46:08;;;;;;;;;;;;;;;8.94;42.55;99005.75;4382529;32;19992;-80
2022/12/27 13:48:53;;;;;;;;;;;;;;;8.79;42.21;99006.88;4395389;32;20006;-79
2022/12/27 13:51:42;;;;;;;;;;;;;;;8.58;43.05;99004.75;4394992;32;19958;-80
2022/12/27 13:54:19;;;;;;;;;;;;;;;8.15;44.72;99025.22;4395244;32;19973;-80
2022/12/27 13:56:54;;;;;;;;;;;;;;;8.50;44.69;99020.31;4394576;32;19962;-80
2022/12/27 14:03:01;;;;;;;;;;;;;;;9.31;43.28;99021.22;4394593;32;19986;-80
2022/12/27 14:05:40;;;;;;;;;;;;;;;8.85;43.56;99027.38;4381089;32;19978;-80
2022/12/27 14:08:06;;;;;;;;;;;;;;;8.94;43.59;99028.91;4394495;32;19950;-80
2022/12/27 14:10:43;;;;;;;;;;;;;;;9.14;42.32;99031.03;4393614;32;19950;-79
2022/12/27 14:13:10;;;;;;;;;;;;;;;8.19;44.72;99043.16;4381278;32;20004;-80
2022/12/27 14:15:42;;;;;;;;;;;;;;;9.29;43.58;99046.19;4394038;32;19959;-80
2022/12/27 14:18:13;;;;;;;;;;;;;;;8.61;44.62;99050.97;4380936;32;19966;-79
2022/12/27 14:21:03;;;;;;;;;;;;;;;8.58;44.68;99046.75;4381523;32;19992;-80
2022/12/27 14:23:30;;;;;;;;;;;;;;;8.10;45.69;99053.59;4394466;32;19951;-80
2022/12/27 14:26:12;;;;;;;;;;;;;;;8.39;45.03;99060.81;4394321;32;19993;-79
2022/12/27 14:29:05;;;;;;;;;;;;;;;8.96;44.52;99070.91;4381739;32;20024;-80
2022/12/27 14:31:45;;;;;;;;;;;;;;;8.68;44.61;99076.56;4382356;32;19950;-80
2022/12/27 14:34:15;;;;;;;;;;;;;;;9.28;43.35;99080.53;4393294;32;19958;-80
2022/12/27 14:36:45;;;;;;;;;;;;;;;8.97;44.02;99091.47;4394154;32;19959;-80
2022/12/27 14:39:33;;;;;;;;;;;;;;;8.69;45.24;99093.69;4394174;32;19957;-80
2022/12/27 14:42:08;;;;;;;;;;;;;;;9.09;44.28;99104.97;4393705;32;19954;-80
2022/12/27 14:44:53;;;;;;;;;;;;;;;9.54;42.90;99106.56;4380599;32;19962;-80
2022/12/27 14:47:26;;;;;;;;;;;;;;;8.99;44.11;99114.59;4380461;32;19959;-80
2022/12/27 14:50:27;;;;;;;;;;;;;;;9.13;43.92;99112.59;4380789;32;20064;-80
2022/12/27 14:52:54;;;;;;;;;;;;;;;9.08;44.23;99111.84;4392896;32;19972;-80
2022/12/27 14:55:36;;;;;;;;;;;;;;;8.56;45.90;99115.38;4392913;32;19954;-80
2022/12/27 14:58:09;;;;;;;;;;;;;;;8.76;45.19;99112.44;4393813;32;19996;-80
2022/12/27 15:04:08;;;;;;;;;;;;;;;8.29;46.04;99126.09;4394612;32;19961;-80
2022/12/27 15:06:40;;;;;;;;;;;;;;;9.02;44.65;99132.53;4393790;32;19958;-80
2022/12/27 15:09:10;;;;;;;;;;;;;;;9.42;43.33;99126.59;4394179;32;20001;-80
2022/12/27 15:12:01;;;;;;;;;;;;;;;9.70;42.86;99134.59;4394455;32;19981;-80
2022/12/27 15:14:33;;;;;;;;;;;;;;;9.43;42.73;99128.28;4394128;32;19950;-80
2022/12/27 15:17:12;;;;;;;;;;;;;;;9.72;42.27;99127.69;4394409;32;19993;-80
2022/12/27 15:22:27;;;;;;;;;;;;;;;9.44;42.21;99133.41;4394280;32;19955;-80
2022/12/27 15:24:59;;;;;;;;;;;;;;;9.74;41.06;99131.06;4394226;32;19992;-80
2022/12/27 15:27:29;;;;;;;;;;;;;;;9.76;41.83;99139.59;4393590;32;19971;-79
2022/12/27 15:30:21;;;;;;;;;;;;;;;8.58;43.38;99146.22;4381267;32;19966;-80